Time;durP1;ratioP1;P1;durP2;ratioP2;P2;SDS_P1;SDS_P2;PMS_P1;PMS_P2;Temp;Humidity;BMP_temperature;BMP_pressure;BME280_temperature;BME280_humidity;BME280_pressure;Samples;Min_cycle;Max_cycle;Signal;HPM_P1;HPM_P2
2021/03/14 00:00:36;;;;;;;13.40;11.97;;;;;;;3.43;100.00;89782.78;5012257;28;20719;-84
2021/03/14 00:03:04;;;;;;;13.43;11.97;;;;;;;3.46;100.00;89818.56;5012763;28;20690;-84
2021/03/14 00:05:31;;;;;;;17.00;14.40;;;;;;;3.54;100.00;89865.44;5013352;28;20575;-84
2021/03/14 00:07:58;;;;;;;17.87;13.97;;;;;;;3.57;100.00;89941.97;5012878;28;20577;-83
2021/03/14 00:10:26;;;;;;;13.50;11.90;;;;;;;3.38;100.00;90065.56;5013192;28;20286;-84
2021/03/14 00:12:52;;;;;;;11.83;10.63;;;;;;;3.25;100.00;90121.38;5012881;28;20195;-84
2021/03/14 00:15:21;;;;;;;12.33;10.77;;;;;;;3.18;100.00;90116.47;5012603;28;20219;-84
2021/03/14 00:17:47;;;;;;;12.03;10.83;;;;;;;2.93;100.00;90143.25;5012889;28;20301;-84
2021/03/14 00:20:17;;;;;;;12.70;10.50;;;;;;;3.08;100.00;90026.56;5012727;28;20207;-84
2021/03/14 00:22:44;;;;;;;12.13;10.90;;;;;;;3.30;100.00;89974.31;5012777;28;20291;-84
2021/03/14 00:25:12;;;;;;;13.50;10.73;;;;;;;3.04;100.00;89958.09;5012552;28;20246;-84
2021/03/14 00:27:39;;;;;;;11.70;10.47;;;;;;;2.96;100.00;89893.88;5012570;28;20286;-83
2021/03/14 00:30:08;;;;;;;13.40;12.00;;;;;;;2.88;100.00;89819.28;5012547;28;20210;-84
2021/03/14 00:32:35;;;;;;;15.70;10.83;;;;;;;3.03;100.00;89718.06;5012664;28;20209;-84
2021/03/14 00:35:01;;;;;;;12.90;10.67;;;;;;;3.12;100.00;89663.00;5012352;28;20196;-83
2021/03/14 00:37:29;;;;;;;13.70;10.87;;;;;;;3.44;100.00;89593.16;5012039;28;20204;-83
2021/03/14 00:39:56;;;;;;;10.53;9.40;;;;;;;3.58;100.00;89645.91;5012333;28;20214;-84
2021/03/14 00:42:23;;;;;;;10.67;9.50;;;;;;;3.38;100.00;89744.69;5012189;28;20258;-84
2021/03/14 00:44:49;;;;;;;14.07;12.40;;;;;;;3.45;100.00;89762.53;5012373;28;20202;-84
2021/03/14 00:47:16;;;;;;;12.83;10.50;;;;;;;3.49;100.00;89792.84;5012024;28;20391;-84
2021/03/14 00:49:43;;;;;;;13.03;11.73;;;;;;;3.40;100.00;89845.59;5012280;28;20254;-84
2021/03/14 00:52:10;;;;;;;14.47;12.70;;;;;;;3.45;100.00;89861.88;5012329;28;20632;-84
2021/03/14 00:54:38;;;;;;;12.80;11.47;;;;;;;3.21;100.00;89951.81;5012255;28;20199;-84
2021/03/14 00:57:06;;;;;;;15.00;12.27;;;;;;;3.02;100.00;89907.59;5011845;28;20320;-84
2021/03/14 00:59:33;;;;;;;14.43;11.77;;;;;;;2.99;100.00;89781.88;5012510;28;20208;-84
2021/03/14 01:01:59;;;;;;;15.67;12.87;;;;;;;2.98;100.00;89687.00;5011821;28;20326;-84
2021/03/14 01:04:26;;;;;;;14.13;12.00;;;;;;;3.00;100.00;89583.81;5012358;28;20196;-84
2021/03/14 01:06:53;;;;;;;15.07;11.70;;;;;;;3.30;100.00;89473.00;5012011;28;20290;-84
2021/03/14 01:09:20;;;;;;;13.77;11.40;;;;;;;3.28;100.00;89529.56;5012418;28;20199;-83
2021/03/14 01:11:48;;;;;;;12.20;10.90;;;;;;;3.12;100.00;89570.47;5014926;28;20207;-84
2021/03/14 01:14:15;;;;;;;12.63;11.30;;;;;;;3.02;100.00;89599.88;5016063;28;20286;-84
2021/03/14 01:16:42;;;;;;;14.83;13.33;;;;;;;2.87;100.00;89581.88;5015661;28;20223;-84
2021/03/14 01:19:09;;;;;;;12.97;11.60;;;;;;;3.12;100.00;89466.78;5016035;28;20246;-85
2021/03/14 01:21:35;;;;;;;16.63;12.30;;;;;;;3.31;100.00;89407.88;5016258;28;20243;-84
2021/03/14 01:24:03;;;;;;;16.97;12.10;;;;;;;3.21;100.00;89376.91;5015919;28;20204;-85
2021/03/14 01:26:29;;;;;;;13.37;11.63;;;;;;;3.08;100.00;89396.56;5015704;28;20249;-84
2021/03/14 01:28:57;;;;;;;14.87;11.67;;;;;;;3.01;100.00;89326.16;5015768;28;20326;-84
2021/03/14 01:31:24;;;;;;;14.67;12.00;;;;;;;2.92;100.00;89281.19;5015999;28;20207;-84
2021/03/14 01:33:51;;;;;;;14.40;11.50;;;;;;;3.10;100.00;89183.69;5015558;28;20282;-85
2021/03/14 01:36:17;;;;;;;15.50;10.77;;;;;;;3.01;100.00;89209.53;5015570;28;20262;-84
2021/03/14 01:38:45;;;;;;;15.90;11.70;;;;;;;3.03;100.00;89225.53;5015836;28;20344;-85
2021/03/14 01:41:12;;;;;;;13.90;12.50;;;;;;;3.04;100.00;89247.81;5015591;28;20206;-84
2021/03/14 01:43:38;;;;;;;12.57;11.27;;;;;;;2.88;100.00;89272.47;5015503;28;20234;-84
2021/03/14 01:46:08;;;;;;;17.30;14.23;;;;;;;2.76;100.00;89259.94;5015723;28;20200;-85
2021/03/14 01:48:36;;;;;;;18.93;15.63;;;;;;;2.73;100.00;89194.97;5015692;28;20234;-84
2021/03/14 01:51:05;;;;;;;14.90;12.43;;;;;;;2.69;100.00;89132.59;5015429;28;20286;-84
2021/03/14 01:53:33;;;;;;;13.03;11.17;;;;;;;2.68;100.00;89044.81;5015448;28;20203;-84
2021/03/14 01:56:00;;;;;;;13.07;11.70;;;;;;;2.69;100.00;88987.50;5015297;28;20270;-84
2021/03/14 01:58:27;;;;;;;14.83;11.50;;;;;;;2.75;100.00;88936.38;5015100;28;20285;-84
2021/03/14 02:00:55;;;;;;;12.80;11.47;;;;;;;2.68;100.00;88951.56;5015176;28;20322;-84
2021/03/14 02:03:24;;;;;;;13.87;11.03;;;;;;;2.64;100.00;88935.06;5014994;28;20247;-84
2021/03/14 02:05:51;;;;;;;12.87;11.50;;;;;;;2.56;100.00;88921.75;5015130;28;20245;-84
2021/03/14 02:08:19;;;;;;;12.80;11.10;;;;;;;2.48;100.00;88916.47;5015178;28;20239;-84
2021/03/14 02:10:49;;;;;;;14.33;12.87;;;;;;;2.66;100.00;88826.72;5015056;28;20679;-84
2021/03/14 02:13:20;;;;;;;19.30;14.03;;;;;;;3.02;100.00;88736.00;5014953;28;20195;-85
2021/03/14 02:15:51;;;;;;;15.80;13.07;;;;;;;3.12;100.00;88847.19;5015016;28;20230;-85
2021/03/14 02:18:19;;;;;;;16.27;12.63;;;;;;;3.06;100.00;88986.50;5014901;28;20183;-84
2021/03/14 02:20:48;;;;;;;15.13;13.17;;;;;;;2.69;100.00;89168.09;5015166;28;20211;-84
2021/03/14 02:23:26;;;;;;;13.30;11.90;;;;;;;2.78;100.00;89137.88;5014013;28;20199;-84
2021/03/14 02:26:02;;;;;;;13.53;12.13;;;;;;;2.91;100.00;89103.44;5014836;28;20191;-84
2021/03/14 02:28:30;;;;;;;13.40;10.97;;;;;;;2.82;100.00;89162.94;5014556;28;20218;-85
2021/03/14 02:30:59;;;;;;;13.70;12.20;;;;;;;2.63;100.00;89219.19;5014776;28;20249;-84
2021/03/14 02:33:28;;;;;;;15.57;12.47;;;;;;;2.84;100.00;89140.09;5014530;28;20262;-84
2021/03/14 02:35:58;;;;;;;13.20;11.80;;;;;;;2.83;100.00;89177.41;5014055;28;20235;-84
2021/03/14 02:38:25;;;;;;;14.70;12.67;;;;;;;2.57;100.00;89249.59;5014572;28;20246;-85
2021/03/14 02:40:54;;;;;;;14.30;11.80;;;;;;;2.78;100.00;89149.00;5014568;28;20204;-84
2021/03/14 02:43:21;;;;;;;12.90;10.67;;;;;;;2.87;100.00;89123.19;5014508;28;20286;-84
2021/03/14 02:45:51;;;;;;;18.60;11.70;;;;;;;2.87;100.00;89164.66;5014593;28;20254;-84
2021/03/14 02:48:19;;;;;;;13.30;11.70;;;;;;;2.48;100.00;89277.19;5014219;28;20202;-84
2021/03/14 02:50:47;;;;;;;15.20;11.77;;;;;;;2.41;100.00;89252.69;5014425;28;20199;-84
2021/03/14 02:53:16;;;;;;;15.13;11.83;;;;;;;2.31;100.00;89246.59;5014059;28;20208;-84
2021/03/14 02:55:43;;;;;;;17.10;11.60;;;;;;;2.19;100.00;89217.81;5014243;28;20707;-84
2021/03/14 02:58:11;;;;;;;13.33;11.97;;;;;;;2.12;100.00;89156.03;5013880;28;20200;-84
2021/03/14 03:00:40;;;;;;;14.20;12.40;;;;;;;2.11;100.00;89066.50;5014231;28;20289;-84
2021/03/14 03:03:08;;;;;;;13.07;11.67;;;;;;;2.13;100.00;88999.69;5013860;28;20279;-84
2021/03/14 03:05:36;;;;;;;14.83;12.57;;;;;;;2.59;100.00;88838.25;5014103;28;20284;-83
2021/03/14 03:08:05;;;;;;;12.90;11.40;;;;;;;2.70;100.00;88845.81;5014266;28;20203;-84
2021/03/14 03:10:35;;;;;;;12.17;10.83;;;;;;;2.71;100.00;88873.25;5014000;28;20282;-85
2021/03/14 03:13:03;;;;;;;11.50;10.37;;;;;;;2.76;100.00;88899.81;5014152;28;20203;-84
2021/03/14 03:15:31;;;;;;;12.77;11.57;;;;;;;2.74;100.00;88932.25;5013839;28;20199;-84
2021/03/14 03:17:59;;;;;;;14.30;11.00;;;;;;;2.74;100.00;88964.13;5013761;28;20620;-84
2021/03/14 03:20:28;;;;;;;12.13;10.83;;;;;;;2.67;100.00;88953.38;5013616;28;20207;-84
2021/03/14 03:22:56;;;;;;;22.83;15.63;;;;;;;2.55;100.00;89000.47;5013838;28;20195;-84
2021/03/14 03:25:24;;;;;;;19.43;14.57;;;;;;;2.54;100.00;88972.28;5013752;28;20245;-85
2021/03/14 03:27:51;;;;;;;14.80;12.53;;;;;;;2.54;100.00;88986.00;5013305;28;20206;-84
2021/03/14 03:30:25;;;;;;;11.57;10.40;;;;;;;2.56;100.00;88981.31;5013867;28;20305;-84
2021/03/14 03:32:52;;;;;;;12.90;11.40;;;;;;;2.35;100.00;89030.09;5013472;28;20189;-84
2021/03/14 03:35:20;;;;;;;12.93;11.53;;;;;;;2.34;100.00;88997.50;5012336;28;20206;-84
2021/03/14 03:37:49;;;;;;;21.83;15.63;;;;;;;2.67;100.00;88924.09;5013276;28;20195;-84
2021/03/14 03:40:20;;;;;;;18.53;15.10;;;;;;;2.71;100.00;88941.38;5013393;28;20402;-84
2021/03/14 03:42:52;;;;;;;16.80;12.47;;;;;;;2.73;100.00;88952.19;5013364;28;20286;-84
2021/03/14 03:45:20;;;;;;;16.13;13.90;;;;;;;2.61;100.00;88994.16;5013519;28;20220;-84
2021/03/14 03:47:47;;;;;;;14.43;12.93;;;;;;;2.58;100.00;88991.38;5012997;28;20203;-83
2021/03/14 03:50:16;;;;;;;29.73;19.57;;;;;;;2.20;100.00;89099.50;5013323;28;20226;-84
2021/03/14 03:52:47;;;;;;;85.37;41.97;;;;;;;2.02;100.00;89104.44;5013352;28;20218;-84
2021/03/14 03:55:17;;;;;;;32.67;20.23;;;;;;;2.00;100.00;89033.31;5013256;28;20670;-84
2021/03/14 03:57:44;;;;;;;27.30;18.73;;;;;;;2.30;100.00;88916.28;5012821;28;20691;-84
2021/03/14 04:00:14;;;;;;;24.93;19.57;;;;;;;2.41;100.00;88878.00;5013062;28;20199;-84
2021/03/14 04:02:43;;;;;;;23.03;17.70;;;;;;;2.33;100.00;88883.88;5012913;28;20191;-84
2021/03/14 04:05:12;;;;;;;16.83;14.40;;;;;;;2.37;100.00;88879.66;5013134;28;20231;-84
2021/03/14 04:07:42;;;;;;;15.07;12.37;;;;;;;2.19;100.00;88929.72;5012809;28;20257;-84
2021/03/14 04:10:12;;;;;;;14.83;11.97;;;;;;;2.17;100.00;88929.22;5012813;28;20257;-84
2021/03/14 04:12:42;;;;;;;13.40;11.17;;;;;;;2.28;100.00;88904.69;5012895;28;20203;-83
2021/03/14 04:15:11;;;;;;;12.40;11.17;;;;;;;2.52;100.00;88870.78;5012594;28;20203;-83
2021/03/14 04:17:39;;;;;;;16.00;13.43;;;;;;;2.57;100.00;88923.25;5012371;28;20743;-83
2021/03/14 04:20:10;;;;;;;13.87;12.17;;;;;;;2.63;100.00;88926.50;5013122;28;20213;-84
2021/03/14 04:22:39;;;;;;;12.37;11.07;;;;;;;2.49;100.00;88998.25;5012496;28;20192;-83
2021/03/14 04:25:07;;;;;;;12.50;11.30;;;;;;;2.42;100.00;89003.81;5012573;28;20287;-84
2021/03/14 04:27:35;;;;;;;12.40;11.13;;;;;;;2.29;100.00;89017.56;5012296;28;20199;-84
2021/03/14 04:30:05;;;;;;;12.83;11.40;;;;;;;2.33;100.00;88967.50;5012868;28;20199;-84
2021/03/14 04:32:32;;;;;;;12.60;10.70;;;;;;;2.19;100.00;89002.19;5012606;28;20191;-83
2021/03/14 04:35:01;;;;;;;381.33;223.10;;;;;;;2.03;100.00;89006.84;5012728;28;20678;-83
2021/03/14 04:37:28;;;;;;;58.23;43.10;;;;;;;1.97;100.00;88951.84;5011927;28;20227;-83
2021/03/14 04:39:55;;;;;;;29.07;23.43;;;;;;;2.27;100.00;88828.84;5012754;28;20665;-83
2021/03/14 04:42:23;;;;;;;18.77;15.10;;;;;;;2.17;100.00;88807.59;5012626;28;20281;-83
2021/03/14 04:44:52;;;;;;;13.43;12.07;;;;;;;2.13;100.00;88747.88;5012353;28;20207;-84
2021/03/14 04:47:19;;;;;;;15.87;12.07;;;;;;;2.17;100.00;88629.78;5012304;28;20203;-83
2021/03/14 04:49:46;;;;;;;12.93;11.37;;;;;;;2.28;100.00;88503.47;5012320;28;20653;-83
2021/03/14 04:52:17;;;;;;;13.00;11.57;;;;;;;2.20;100.00;88465.38;5012344;28;20628;-83
2021/03/14 04:54:45;;;;;;;13.93;12.33;;;;;;;2.43;100.00;88321.84;5012343;28;20711;-83
2021/03/14 04:57:12;;;;;;;14.87;12.73;;;;;;;2.64;100.00;88233.94;5011981;28;20215;-84
2021/03/14 04:59:42;;;;;;;14.27;12.30;;;;;;;2.50;100.00;88260.00;5012526;28;20203;-84
2021/03/14 05:02:11;;;;;;;14.00;12.07;;;;;;;2.48;100.00;88210.34;5011907;28;20274;-83
2021/03/14 05:04:40;;;;;;;15.53;13.57;;;;;;;2.72;100.00;88105.47;5012567;28;20211;-84
2021/03/14 05:07:08;;;;;;;13.70;12.10;;;;;;;2.64;100.00;88142.53;5011555;28;20196;-84
2021/03/14 05:09:37;;;;;;;14.00;11.53;;;;;;;2.62;100.00;88102.16;5012502;28;20205;-84
2021/03/14 05:12:06;;;;;;;13.10;11.80;;;;;;;2.82;100.00;88037.78;5012326;28;20303;-84
2021/03/14 05:14:35;;;;;;;15.23;12.57;;;;;;;2.91;100.00;88040.31;5012029;28;20691;-84
2021/03/14 05:17:03;;;;;;;17.03;14.27;;;;;;;2.84;100.00;88056.34;5012250;28;20602;-85
2021/03/14 05:19:32;;;;;;;23.73;20.87;;;;;;;2.88;100.00;88069.47;5012047;28;20235;-85
2021/03/14 05:22:00;;;;;;;17.97;16.03;;;;;;;2.83;100.00;88128.13;5011910;28;20708;-84
2021/03/14 05:24:28;;;;;;;13.67;12.00;;;;;;;2.97;100.00;88146.06;5011884;28;20809;-85
2021/03/14 05:26:56;;;;;;;12.97;11.63;;;;;;;3.01;100.00;88180.66;5011864;28;20203;-84
2021/03/14 05:29:25;;;;;;;14.10;11.97;;;;;;;3.11;100.00;88169.16;5012115;28;20221;-84
2021/03/14 05:31:55;;;;;;;12.80;11.57;;;;;;;3.16;100.00;88187.16;5011685;28;20202;-84
2021/03/14 05:34:22;;;;;;;14.10;12.60;;;;;;;3.10;100.00;88248.75;5011709;28;20195;-85
2021/03/14 05:36:49;;;;;;;15.37;13.53;;;;;;;3.38;100.00;88199.09;5011706;28;20223;-84
2021/03/14 05:39:17;;;;;;;16.70;14.97;;;;;;;3.49;100.00;88205.44;5012034;28;20199;-85
2021/03/14 05:41:44;;;;;;;16.10;14.40;;;;;;;3.48;100.00;88235.03;5011745;28;20691;-84
2021/03/14 05:44:12;;;;;;;21.00;18.80;;;;;;;3.58;100.00;88229.50;5011904;28;20200;-84
2021/03/14 05:46:40;;;;;;;20.23;17.03;;;;;;;3.60;100.00;88262.88;5012015;28;20253;-85
2021/03/14 05:49:07;;;;;;;16.60;14.90;;;;;;;3.64;100.00;88297.53;5011734;28;20204;-84
2021/03/14 05:51:36;;;;;;;17.20;15.40;;;;;;;3.69;100.00;88346.63;5011524;28;20582;-84
2021/03/14 05:54:03;;;;;;;30.83;23.73;;;;;;;3.80;100.00;88380.78;5011731;28;20199;-84
2021/03/14 05:56:33;;;;;;;39.07;32.00;;;;;;;3.73;100.00;88455.72;5011838;28;20658;-84
2021/03/14 05:59:01;;;;;;;29.97;26.00;;;;;;;3.67;100.00;88493.28;5014690;28;20238;-85
2021/03/14 06:01:30;;;;;;;37.73;28.70;;;;;;;3.70;100.00;88503.03;5014959;28;20231;-83
2021/03/14 06:03:58;;;;;;;44.13;31.40;;;;;;;3.56;100.00;88578.44;5011312;28;20211;-80
2021/03/14 06:06:25;;;;;;;34.43;28.50;;;;;;;3.73;100.00;88543.94;5011940;28;20195;-81
2021/03/14 06:08:52;;;;;;;61.90;53.80;;;;;;;3.75;100.00;88585.94;5014592;28;20706;-80
2021/03/14 06:11:20;;;;;;;91.53;81.63;;;;;;;3.98;100.00;88552.78;5014860;28;20685;-81
2021/03/14 06:13:48;;;;;;;111.13;99.07;;;;;;;4.21;100.00;88574.13;5014489;28;20789;-81
2021/03/14 06:16:15;;;;;;;146.40;130.03;;;;;;;4.07;100.00;88696.31;5014693;28;20233;-79
2021/03/14 06:18:43;;;;;;;101.63;91.03;;;;;;;3.79;100.00;88795.19;5014493;28;20290;-79
2021/03/14 06:21:20;;;;;;;36.67;30.97;;;;;;;3.95;100.00;88740.25;5014456;28;20207;-81
2021/03/14 06:23:58;;;;;;;103.43;62.70;;;;;;;4.23;100.00;88696.63;5014560;28;20846;-80
2021/03/14 06:26:37;;;;;;;149.73;79.70;;;;;;;4.59;100.00;88661.75;5014616;28;20199;-80
2021/03/14 06:29:39;;;;;;;200.37;95.00;;;;;;;4.89;100.00;88681.56;5014292;28;20617;-79
2021/03/14 06:32:06;;;;;;;71.97;47.23;;;;;;;4.97;100.00;88776.97;4934551;29;20555;-78
2021/03/14 06:34:35;;;;;;;43.03;33.83;;;;;;;5.18;100.00;88817.94;4934451;29;20254;-78
2021/03/14 06:37:11;;;;;;;41.90;30.17;;;;;;;5.37;100.00;88867.03;4934462;29;20238;-78
2021/03/14 06:39:39;;;;;;;32.07;26.30;;;;;;;5.54;100.00;88972.94;4935021;29;20561;-78
2021/03/14 06:42:07;;;;;;;28.37;24.30;;;;;;;5.68;100.00;89039.41;4934431;29;20202;-78
2021/03/14 06:44:35;;;;;;;26.73;23.93;;;;;;;6.05;100.00;89081.53;4934658;29;20302;-78
2021/03/14 06:47:04;;;;;;;24.87;20.90;;;;;;;6.27;100.00;89192.66;4934584;29;20217;-80
2021/03/14 06:49:36;;;;;;;26.13;19.70;;;;;;;6.25;100.00;89371.19;4934843;29;20763;-78
2021/03/14 06:52:04;;;;;;;19.13;16.93;;;;;;;6.58;100.00;89449.81;4934269;29;20195;-80
2021/03/14 06:54:32;;;;;;;17.30;15.53;;;;;;;6.70;100.00;89601.25;4934068;29;20229;-79
2021/03/14 06:57:01;;;;;;;21.87;19.23;;;;;;;6.82;100.00;89707.63;4933570;29;20234;-80
2021/03/14 06:59:29;;;;;;;20.60;18.40;;;;;;;6.79;100.00;89834.19;4934347;29;20212;-79
2021/03/14 07:02:04;;;;;;;18.83;16.90;;;;;;;6.85;100.00;89936.56;4941716;28;20238;-79
2021/03/14 07:04:36;;;;;;;17.80;15.67;;;;;;;7.00;100.00;90052.94;5013671;28;20253;-80
2021/03/14 07:07:03;;;;;;;15.37;13.67;;;;;;;7.30;100.00;90148.94;5013695;28;20187;-79
2021/03/14 07:09:30;;;;;;;21.27;16.63;;;;;;;7.43;100.00;90353.66;5013406;28;20199;-79
2021/03/14 07:11:57;;;;;;;23.37;18.40;;;;;;;7.72;100.00;90418.00;5013390;28;20210;-80
2021/03/14 07:14:27;;;;;;;22.83;17.83;;;;;;;7.85;100.00;90527.03;5013462;28;20199;-79
2021/03/14 07:16:55;;;;;;;21.33;17.37;;;;;;;7.59;100.00;90689.31;5013773;28;20234;-79
2021/03/14 07:19:26;;;;;;;20.27;18.07;;;;;;;7.67;100.00;90682.72;5013141;28;20290;-79
2021/03/14 07:22:03;;;;;;;17.73;15.93;;;;;;;7.89;100.00;90640.41;5011487;28;20742;-78
2021/03/14 07:24:34;;;;;;;16.73;14.70;;;;;;;8.16;100.00;90699.16;5011125;28;20203;-80
2021/03/14 07:27:04;;;;;;;16.83;13.13;;;;;;;8.48;100.00;90795.31;5012235;28;20195;-81
2021/03/14 07:29:33;;;;;;;16.40;14.70;;;;;;;8.71;100.00;90880.09;5013464;28;20583;-82
2021/03/14 07:32:01;;;;;;;30.20;24.17;;;;;;;9.04;100.00;90941.25;5012703;28;20207;-80
2021/03/14 07:34:29;;;;;;;19.37;17.37;;;;;;;9.18;100.00;91094.00;5013145;28;20286;-84
2021/03/14 07:36:56;;;;;;;19.60;14.80;;;;;;;8.92;100.00;91203.41;5013157;28;20235;-82
2021/03/14 07:39:23;;;;;;;17.10;13.67;;;;;;;8.86;100.00;91232.50;5013275;28;20202;-79
2021/03/14 07:41:50;;;;;;;80.33;45.87;;;;;;;8.99;100.00;91182.94;5012166;28;20227;-80
2021/03/14 07:44:20;;;;;;;72.87;43.03;;;;;;;9.63;100.00;91125.25;5011722;28;20230;-80
2021/03/14 07:46:47;;;;;;;157.13;89.90;;;;;;;10.03;100.00;91204.56;4996066;28;20235;-80
2021/03/14 07:49:15;;;;;;;27.93;23.50;;;;;;;10.21;100.00;91275.41;4993283;28;20291;-80
2021/03/14 07:51:45;;;;;;;23.33;17.47;;;;;;;10.41;100.00;91353.19;4993122;28;20262;-80
2021/03/14 07:54:17;;;;;;;29.53;24.30;;;;;;;10.44;100.00;91409.59;4993305;28;20211;-79
2021/03/14 07:56:46;;;;;;;33.80;25.90;;;;;;;10.48;100.00;91421.88;4993250;28;20271;-80
2021/03/14 07:59:13;;;;;;;21.97;18.40;;;;;;;10.57;100.00;91466.69;4992847;28;20196;-80
2021/03/14 08:01:42;;;;;;;20.33;18.07;;;;;;;10.70;100.00;91481.00;4992843;28;20768;-81
2021/03/14 08:04:30;;;;;;;23.23;19.37;;;;;;;11.03;100.00;91500.41;4992863;28;20200;-79
2021/03/14 08:06:58;;;;;;;31.90;28.20;;;;;;;10.94;100.00;91591.38;4992698;28;20247;-79
2021/03/14 08:09:43;;;;;;;25.87;20.73;;;;;;;11.31;100.00;91596.06;4994196;28;20208;-79
2021/03/14 08:12:24;;;;;;;32.23;28.60;;;;;;;11.42;100.00;91731.59;5010456;28;20204;-80
2021/03/14 08:14:54;;;;;;;22.07;18.00;;;;;;;11.13;100.00;91852.41;5012708;28;20546;-81
2021/03/14 08:17:23;;;;;;;32.77;24.40;;;;;;;11.53;100.00;91808.53;5011227;28;20310;-80
2021/03/14 08:19:51;;;;;;;26.47;22.90;;;;;;;11.75;100.00;91831.81;5011647;28;20286;-80
2021/03/14 08:22:47;;;;;;;27.17;19.27;;;;;;;11.69;100.00;91887.34;5011942;28;20260;-80
2021/03/14 08:25:21;;;;;;;25.70;21.13;;;;;;;11.42;100.00;91891.94;5012483;28;20198;-80
2021/03/14 08:27:49;;;;;;;24.87;18.90;;;;;;;11.50;100.00;91866.94;5012170;28;20192;-79
2021/03/14 08:30:46;;;;;;;28.17;18.70;;;;;;;11.72;100.00;91865.78;5012107;28;20195;-79
2021/03/14 08:33:46;;;;;;;25.13;20.47;;;;;;;11.98;100.00;91790.88;5006900;28;20204;-79
2021/03/14 08:36:14;;;;;;;20.97;18.17;;;;;;;11.40;100.00;91882.78;5001671;28;20258;-80
2021/03/14 08:38:47;;;;;;;22.23;17.70;;;;;;;11.94;100.00;91834.59;5012080;28;20205;-79
2021/03/14 08:41:25;;;;;;;22.40;17.77;;;;;;;11.99;100.00;91883.78;5012266;28;20290;-81
2021/03/14 08:43:54;;;;;;;18.60;16.50;;;;;;;12.03;100.00;91955.84;5011617;28;20179;-80
2021/03/14 08:46:21;;;;;;;19.90;17.67;;;;;;;11.80;100.00;91944.88;5011737;28;20819;-79
2021/03/14 08:48:48;;;;;;;20.30;17.77;;;;;;;12.20;100.00;91937.06;5011719;28;20196;-80
2021/03/14 08:51:15;;;;;;;18.97;16.67;;;;;;;12.58;100.00;91907.25;5012197;28;20198;-79
2021/03/14 08:53:42;;;;;;;20.67;15.90;;;;;;;12.18;100.00;92020.75;5011812;28;20261;-81
2021/03/14 08:56:11;;;;;;;18.80;16.17;;;;;;;12.45;100.00;92065.09;5011661;28;20384;-79
2021/03/14 08:58:38;;;;;;;19.13;17.13;;;;;;;12.94;100.00;92078.19;5011007;28;20198;-79
2021/03/14 09:01:06;;;;;;;19.90;16.97;;;;;;;12.74;100.00;92181.06;5011253;28;20231;-79
2021/03/14 09:03:40;;;;;;;21.83;18.30;;;;;;;12.55;100.00;92180.91;5010447;28;20294;-79
2021/03/14 09:06:31;;;;;;;21.20;15.77;;;;;;;12.71;100.00;92171.06;4992380;28;20192;-80
2021/03/14 09:08:59;;;;;;;27.23;23.27;;;;;;;12.96;100.00;92257.91;4997038;28;20685;-80
2021/03/14 09:11:37;;;;;;;26.80;22.27;;;;;;;13.72;100.00;92312.13;5007578;28;20654;-80
2021/03/14 09:14:19;;;;;;;25.40;20.77;;;;;;;13.64;100.00;92459.63;4992348;28;20287;-83
2021/03/14 09:16:46;;;;;;;37.47;28.63;;;;;;;14.06;100.00;92566.63;4991667;28;20303;-75
2021/03/14 09:19:30;;;;;;;33.07;25.43;;;;;;;14.25;100.00;92623.88;4992164;28;20208;-75
2021/03/14 09:21:58;;;;;;;33.33;27.93;;;;;;;14.47;100.00;92681.63;4991846;28;20205;-75
2021/03/14 09:24:41;;;;;;;50.17;36.87;;;;;;;14.34;100.00;92669.03;4992323;28;20588;-75
2021/03/14 09:27:15;;;;;;;57.33;39.27;;;;;;;14.47;100.00;92736.31;4991804;28;20191;-75
2021/03/14 09:29:50;;;;;;;58.07;40.83;;;;;;;14.57;100.00;92847.31;4992058;28;20286;-75
2021/03/14 09:32:34;;;;;;;78.70;52.87;;;;;;;14.70;100.00;92902.28;4994057;28;20695;-75
2021/03/14 09:35:12;;;;;;;52.53;34.83;;;;;;;15.41;100.00;92959.56;4995950;28;20275;-75
2021/03/14 09:37:40;;;;;;;44.03;32.27;;;;;;;15.30;100.00;93068.31;4995610;28;20704;-75
2021/03/14 09:40:10;;;;;;;38.53;27.30;;;;;;;14.15;100.00;93053.56;4996374;28;20294;-74
2021/03/14 09:42:39;;;;;;;15.53;13.47;;;;;;;15.11;100.00;92986.84;4995811;28;20215;-74
2021/03/14 09:45:08;;;;;;;16.73;15.03;;;;;;;14.75;100.00;93107.66;4995621;28;20283;-75
2021/03/14 09:47:35;;;;;;;17.57;15.77;;;;;;;14.70;100.00;93118.25;4995542;28;20205;-75
2021/03/14 09:50:04;;;;;;;18.73;16.70;;;;;;;15.85;100.00;93038.31;4995837;28;20258;-75
2021/03/14 09:52:32;;;;;;;30.20;25.00;;;;;;;15.91;100.00;93153.00;4995900;28;20287;-75
2021/03/14 09:54:58;;;;;;;16.93;15.13;;;;;;;16.24;100.00;93264.72;4995574;28;20279;-75
2021/03/14 09:57:25;;;;;;;18.10;16.30;;;;;;;15.86;100.00;93355.06;4995366;28;20314;-75
2021/03/14 09:59:57;;;;;;;19.03;17.00;;;;;;;15.16;100.00;93351.91;4995657;28;20284;-75
2021/03/14 10:02:24;;;;;;;20.80;18.80;;;;;;;15.12;100.00;93281.25;4995255;28;20323;-75
2021/03/14 10:04:51;;;;;;;16.03;14.33;;;;;;;15.53;100.00;93329.00;4995619;28;20220;-75
2021/03/14 10:07:26;;;;;;;17.23;15.30;;;;;;;14.63;100.00;93297.44;4995324;28;20283;-75
2021/03/14 10:09:53;;;;;;;22.90;20.50;;;;;;;14.92;100.00;93232.50;4995846;28;20199;-75
2021/03/14 10:12:20;;;;;;;25.03;22.57;;;;;;;15.07;100.00;93247.66;4995530;28;20302;-75
2021/03/14 10:14:47;;;;;;;26.10;23.37;;;;;;;14.15;100.00;93196.19;4995715;28;20595;-75
2021/03/14 10:17:15;;;;;;;24.00;21.57;;;;;;;14.30;100.00;93095.09;4994821;28;20280;-75
2021/03/14 10:19:42;;;;;;;24.03;21.30;;;;;;;14.39;100.00;93056.56;4995502;28;20676;-74
2021/03/14 10:22:09;;;;;;;24.40;20.93;;;;;;;14.93;100.00;93099.25;4995033;28;20687;-74
2021/03/14 10:24:45;;;;;;;27.30;24.30;;;;;;;16.45;100.00;93170.88;4995539;28;20235;-74
2021/03/14 10:27:12;;;;;;;25.33;20.70;;;;;;;16.32;100.00;93288.06;4994937;28;20184;-75
2021/03/14 10:29:40;;;;;;;20.10;18.07;;;;;;;16.52;100.00;93386.13;4995113;28;20585;-76
2021/03/14 10:32:20;;;;;;;21.57;19.37;;;;;;;15.92;100.00;93382.34;4994784;28;20223;-75
2021/03/14 10:34:51;;;;;;;21.77;19.40;;;;;;;15.57;100.00;93282.44;4995136;28;20572;-75
2021/03/14 10:37:30;;;;;;;20.67;18.03;;;;;;;17.23;100.00;93305.63;4994394;28;20205;-75
2021/03/14 10:39:59;;;;;;;18.13;16.23;;;;;;;17.67;100.00;93514.72;4995234;28;20593;-75
2021/03/14 10:42:33;;;;;;;21.90;17.37;;;;;;;17.02;100.00;93646.41;4994753;28;20275;-75
2021/03/14 10:45:02;;;;;;;17.20;13.87;;;;;;;16.92;100.00;93583.50;4994383;28;20189;-75
2021/03/14 10:47:30;;;;;;;20.30;18.20;;;;;;;17.31;100.00;93565.19;4994662;28;20283;-75
2021/03/14 10:50:12;;;;;;;29.17;25.73;;;;;;;17.97;100.00;93540.41;4994795;28;20296;-75
2021/03/14 10:52:39;;;;;;;79.47;63.20;;;;;;;18.59;100.00;93684.56;4994788;28;20284;-75
2021/03/14 10:55:37;;;;;;;126.07;70.53;;;;;;;17.86;100.00;93825.00;4994776;28;20614;-75
2021/03/14 10:58:14;;;;;;;56.67;37.27;;;;;;;18.26;100.00;93702.75;4934322;29;20585;-75
2021/03/14 11:00:44;;;;;;;39.80;31.10;;;;;;;17.59;100.00;93893.19;4984141;28;20237;-75
2021/03/14 11:03:29;;;;;;;20.70;17.10;;;;;;;18.55;100.00;93805.88;4994096;28;20203;-75
2021/03/14 11:06:15;;;;;;;27.37;19.77;;;;;;;17.70;100.00;93826.81;4994523;28;20202;-75
2021/03/14 11:08:56;;;;;;;29.93;25.60;;;;;;;17.37;100.00;93849.28;4994704;28;20571;-75
2021/03/14 11:11:27;;;;;;;19.00;15.97;;;;;;;17.76;100.00;93828.44;4994268;28;20574;-75
2021/03/14 11:13:54;;;;;;;25.27;19.97;;;;;;;18.22;100.00;93834.63;4994504;28;20644;-79
2021/03/14 11:16:25;;;;;;;19.17;16.50;;;;;;;18.38;100.00;93877.16;4994008;28;20203;-79
2021/03/14 11:19:02;;;;;;;12.97;11.23;;;;;;;18.91;100.00;93981.50;4994145;28;20663;-79
2021/03/14 11:21:29;;;;;;;40.13;32.67;;;;;;;17.96;100.00;93968.53;4994138;28;20199;-79
2021/03/14 11:23:56;;;;;;;28.47;23.80;;;;;;;17.95;100.00;93919.91;4994003;28;20290;-79
2021/03/14 11:26:22;;;;;;;21.20;17.80;;;;;;;17.72;100.00;93845.94;4993900;28;20234;-79